createdAt,value
2017-08-09T00:00:42.185Z,66.10
2017-08-09T00:03:08.537Z,66.70
2017-08-09T00:05:34.883Z,66.30
2017-08-09T00:08:01.236Z,66.10
2017-08-09T00:10:27.597Z,65.80
2017-08-09T00:12:53.915Z,65.90
2017-08-09T00:15:20.287Z,65.80
2017-08-09T00:17:46.671Z,66.10
2017-08-09T00:20:12.992Z,66.00
2017-08-09T00:22:40.314Z,66.00
2017-08-09T00:25:06.916Z,66.30
2017-08-09T00:27:33.570Z,64.30
2017-08-09T00:30:00.147Z,65.30
2017-08-09T00:32:26.689Z,65.70
2017-08-09T00:34:54.459Z,66.30
2017-08-09T00:37:21.319Z,66.40
2017-08-09T00:39:47.883Z,66.30
2017-08-09T00:42:14.496Z,66.50
2017-08-09T00:44:41.061Z,66.10
2017-08-09T00:47:08.086Z,66.70
2017-08-09T00:49:34.677Z,66.10
2017-08-09T00:52:01.269Z,65.70
2017-08-09T00:54:27.867Z,65.90
2017-08-09T00:56:55.620Z,65.80
2017-08-09T00:59:22.973Z,66.10
2017-08-09T01:01:49.533Z,65.80
2017-08-09T01:04:16.253Z,65.30
2017-08-09T01:06:43.321Z,66.60
2017-08-09T01:09:09.939Z,67.00
2017-08-09T01:11:36.856Z,66.00
2017-08-09T01:14:03.474Z,66.60
2017-08-09T01:16:30.078Z,66.20
2017-08-09T01:18:56.664Z,66.40
2017-08-09T01:21:23.923Z,66.10
2017-08-09T01:23:50.565Z,66.10
2017-08-09T01:26:17.137Z,66.80
2017-08-09T01:28:43.687Z,66.30
2017-08-09T01:31:10.303Z,66.20
2017-08-09T01:33:37.485Z,66.10
2017-08-09T01:36:04.800Z,66.70
2017-08-09T01:38:31.780Z,66.10
2017-08-09T01:40:59.285Z,65.60
2017-08-09T01:43:25.661Z,65.60
2017-08-09T01:45:52.093Z,64.70
2017-08-09T01:48:19.677Z,65.30
2017-08-09T01:50:46.257Z,66.60
2017-08-09T01:53:12.644Z,65.50
2017-08-09T01:55:39.768Z,66.10
2017-08-09T01:58:06.136Z,66.10
2017-08-09T02:00:32.854Z,66.40
2017-08-09T02:02:59.533Z,66.40
2017-08-09T02:05:26.163Z,66.40
2017-08-09T02:07:52.780Z,66.80
2017-08-09T02:10:19.523Z,66.30
2017-08-09T02:12:46.117Z,66.30
2017-08-09T02:15:12.720Z,65.60
2017-08-09T02:17:39.317Z,66.70
2017-08-09T02:20:05.961Z,66.00
2017-08-09T02:22:32.540Z,65.50
2017-08-09T02:24:59.171Z,65.30
2017-08-09T02:27:25.803Z,64.60
2017-08-09T02:29:52.515Z,65.40
2017-08-09T02:32:19.556Z,65.70
2017-08-09T02:34:46.094Z,65.90
2017-08-09T02:37:12.664Z,65.00
2017-08-09T02:39:39.311Z,64.30
2017-08-09T02:42:05.915Z,64.20
2017-08-09T02:44:32.457Z,64.30
2017-08-09T02:46:59.001Z,63.70
2017-08-09T02:49:25.612Z,64.20
2017-08-09T02:51:52.172Z,64.30
2017-08-09T02:54:18.731Z,64.40
2017-08-09T02:56:52.088Z,64.40
2017-08-09T02:59:18.449Z,64.50
2017-08-09T03:01:44.781Z,64.40
2017-08-09T03:04:11.168Z,64.00
2017-08-09T03:06:37.571Z,63.30
2017-08-09T03:09:03.916Z,64.00
2017-08-09T03:11:30.276Z,63.00
2017-08-09T03:13:56.793Z,63.00
2017-08-09T03:16:23.332Z,63.10
2017-08-09T03:18:50.531Z,63.50
2017-08-09T03:21:17.110Z,62.90
2017-08-09T03:23:43.673Z,62.90
2017-08-09T03:26:10.224Z,62.60
2017-08-09T03:28:36.763Z,62.60
2017-08-09T03:31:03.354Z,62.50
2017-08-09T03:33:29.936Z,62.30
2017-08-09T03:35:56.504Z,62.80
2017-08-09T03:38:23.893Z,62.60
2017-08-09T03:40:50.457Z,62.60
2017-08-09T03:43:17.024Z,63.00
2017-08-09T03:45:44.484Z,62.90
2017-08-09T03:48:11.090Z,62.40
2017-08-09T03:50:37.662Z,62.30
2017-08-09T03:53:05.053Z,62.90
2017-08-09T03:55:31.920Z,62.90
2017-08-09T03:57:58.635Z,62.90
2017-08-09T04:00:24.995Z,62.90
2017-08-09T04:02:51.353Z,63.20
2017-08-09T04:05:18.320Z,63.50
2017-08-09T04:07:44.776Z,63.10
2017-08-09T04:10:11.349Z,62.60
2017-08-09T04:12:38.745Z,62.80
2017-08-09T04:15:05.366Z,62.90
2017-08-09T04:17:31.933Z,62.70
2017-08-09T04:19:58.558Z,62.90
2017-08-09T04:22:25.135Z,62.70
2017-08-09T04:24:51.713Z,62.40
2017-08-09T04:27:18.316Z,62.20
2017-08-09T04:29:44.885Z,62.90
2017-08-09T04:32:12.276Z,63.20
2017-08-09T04:34:38.908Z,63.20
2017-08-09T04:37:05.543Z,63.50
2017-08-09T04:39:32.080Z,63.60
2017-08-09T04:41:58.602Z,63.30
2017-08-09T04:44:25.197Z,63.50
2017-08-09T04:46:51.797Z,63.30
2017-08-09T04:49:19.153Z,62.90
2017-08-09T04:51:45.758Z,62.90
2017-08-09T04:54:12.292Z,63.10
2017-08-09T04:56:38.856Z,63.20
2017-08-09T04:59:05.516Z,62.90
2017-08-09T05:01:32.204Z,62.40
2017-08-09T05:03:58.871Z,62.80
2017-08-09T05:06:25.454Z,62.60
2017-08-09T05:08:53.700Z,62.60
2017-08-09T05:11:20.299Z,62.70
2017-08-09T05:13:46.892Z,63.40
2017-08-09T05:16:13.538Z,63.20
2017-08-09T05:18:40.115Z,63.00
2017-08-09T05:21:11.121Z,62.70
2017-08-09T05:23:37.688Z,62.70
2017-08-09T05:26:04.351Z,61.20
2017-08-09T05:28:31.860Z,61.70
2017-08-09T05:30:58.618Z,61.90
2017-08-09T05:33:25.224Z,61.30
2017-08-09T05:35:51.833Z,60.50
2017-08-09T05:38:18.452Z,62.00
2017-08-09T05:40:45.058Z,60.90
2017-08-09T05:43:11.698Z,60.20
2017-08-09T05:45:38.433Z,60.10
2017-08-09T05:48:05.065Z,61.00
2017-08-09T05:50:31.686Z,60.20
2017-08-09T05:52:58.384Z,60.20
2017-08-09T05:55:24.996Z,60.80
2017-08-09T05:57:51.653Z,60.30
2017-08-09T06:00:19.120Z,58.80
2017-08-09T06:02:46.448Z,60.90
2017-08-09T06:05:13.108Z,60.30
2017-08-09T06:07:39.740Z,59.90
2017-08-09T06:10:06.352Z,59.50
2017-08-09T06:12:33.081Z,57.80
2017-08-09T06:14:59.660Z,58.80
2017-08-09T06:17:26.228Z,57.50
2017-08-09T06:19:53.084Z,58.20
2017-08-09T06:22:19.669Z,57.50
2017-08-09T06:24:46.284Z,58.10
2017-08-09T06:27:12.881Z,57.80
2017-08-09T06:29:39.617Z,58.80
2017-08-09T06:32:06.247Z,57.30
2017-08-09T06:34:32.861Z,57.50
2017-08-09T06:36:59.532Z,57.30
2017-08-09T06:39:26.173Z,57.50
2017-08-09T06:41:52.761Z,56.70
2017-08-09T06:44:20.193Z,56.60
2017-08-09T06:46:46.815Z,56.60
2017-08-09T06:49:14.185Z,56.80
2017-08-09T06:51:40.849Z,56.70
2017-08-09T06:54:07.457Z,56.80
2017-08-09T06:56:35.760Z,56.80
2017-08-09T06:59:02.404Z,56.00
2017-08-09T07:01:28.997Z,57.00
2017-08-09T07:03:55.717Z,56.40
2017-08-09T07:06:22.405Z,57.10
2017-08-09T07:08:49.012Z,55.10
2017-08-09T07:11:16.793Z,55.60
2017-08-09T07:13:43.243Z,55.50
2017-08-09T07:16:10.408Z,56.00
2017-08-09T07:18:36.793Z,55.90
2017-08-09T07:21:03.169Z,55.00
2017-08-09T07:23:29.597Z,55.50
2017-08-09T07:28:27.381Z,53.30
2017-08-09T07:30:55.000Z,54.50
2017-08-09T07:33:29.339Z,52.90
2017-08-09T07:35:55.927Z,52.80
2017-08-09T07:38:22.493Z,51.90
2017-08-09T07:40:49.017Z,53.50
2017-08-09T07:43:15.390Z,53.10
2017-08-09T07:45:41.779Z,52.80
2017-08-09T07:48:08.162Z,51.80
2017-08-09T07:50:34.622Z,52.20
2017-08-09T07:53:01.028Z,51.10
2017-08-09T07:55:27.383Z,51.00
2017-08-09T07:57:53.743Z,51.80
2017-08-09T08:00:20.124Z,50.80
2017-08-09T08:02:46.495Z,50.20
2017-08-09T08:08:11.452Z,50.10
2017-08-09T08:10:37.951Z,50.20
2017-08-09T08:13:04.336Z,50.50
2017-08-09T08:15:30.707Z,50.30
2017-08-09T08:17:57.165Z,50.40
2017-08-09T08:20:23.723Z,50.40
2017-08-09T08:22:50.547Z,48.20
2017-08-09T08:25:18.921Z,49.50
2017-08-09T08:27:49.137Z,48.80
2017-08-09T08:30:15.978Z,46.30
2017-08-09T08:35:15.221Z,43.40
2017-08-09T08:37:43.542Z,44.70
2017-08-09T08:40:10.315Z,44.40
2017-08-09T08:42:41.864Z,44.80
2017-08-09T08:45:12.431Z,44.40
2017-08-09T08:47:48.826Z,44.00
2017-08-09T08:50:21.916Z,43.40
2017-08-09T08:52:48.396Z,42.60
2017-08-09T08:55:23.855Z,43.80
2017-08-09T08:57:50.647Z,44.50
2017-08-09T09:00:17.499Z,43.90
2017-08-09T09:02:44.139Z,44.80
2017-08-09T09:05:12.051Z,44.80
2017-08-09T09:07:39.890Z,45.90
2017-08-09T09:10:06.780Z,45.70
2017-08-09T09:12:33.622Z,46.00
2017-08-09T09:17:38.191Z,46.50
2017-08-09T09:20:04.930Z,44.40
2017-08-09T09:22:31.721Z,45.20
2017-08-09T09:24:58.431Z,44.40
2017-08-09T09:27:29.256Z,45.20
2017-08-09T09:29:55.914Z,44.80
2017-08-09T09:32:22.666Z,44.90
2017-08-09T09:34:49.269Z,44.60
2017-08-09T09:37:15.995Z,43.50
2017-08-09T09:39:52.204Z,44.40
2017-08-09T09:42:19.649Z,43.50
2017-08-09T09:44:46.283Z,44.20
2017-08-09T09:47:12.976Z,44.80
2017-08-09T09:49:39.734Z,45.00
2017-08-09T09:52:12.831Z,43.10
2017-08-09T09:54:45.732Z,44.60
2017-08-09T09:57:12.362Z,43.60
2017-08-09T09:59:39.128Z,45.40
2017-08-09T10:02:05.784Z,45.00
2017-08-09T10:04:32.560Z,42.60
2017-08-09T10:07:02.322Z,43.80
2017-08-09T10:09:29.011Z,43.40
2017-08-09T10:11:55.882Z,42.80
2017-08-09T10:14:22.569Z,42.80
2017-08-09T10:16:49.272Z,43.70
2017-08-09T10:19:15.934Z,44.90
2017-08-09T10:21:44.527Z,45.60
2017-08-09T10:24:11.194Z,43.80
2017-08-09T10:26:37.754Z,44.60
2017-08-09T10:29:04.327Z,43.30
2017-08-09T10:31:31.203Z,43.50
2017-08-09T10:33:57.793Z,44.40
2017-08-09T10:36:28.143Z,45.50
2017-08-09T10:38:54.807Z,42.90
2017-08-09T10:41:22.093Z,41.70
2017-08-09T10:43:48.721Z,43.90
2017-08-09T10:46:15.284Z,43.70
2017-08-09T10:48:41.886Z,42.30
2017-08-09T10:51:11.164Z,41.60
2017-08-09T10:56:11.546Z,42.40
2017-08-09T10:58:38.064Z,42.70
2017-08-09T11:01:04.639Z,43.50
2017-08-09T11:03:33.179Z,43.60
2017-08-09T11:05:59.826Z,40.80
2017-08-09T11:08:27.416Z,42.10
2017-08-09T11:10:57.227Z,41.70
2017-08-09T11:13:23.933Z,42.50
2017-08-09T11:15:50.674Z,42.40
2017-08-09T11:18:17.429Z,40.90
2017-08-09T11:20:47.253Z,41.90
2017-08-09T11:23:13.794Z,41.50
2017-08-09T11:25:40.427Z,42.50
2017-08-09T11:28:07.176Z,42.60
2017-08-09T11:30:33.808Z,40.30
2017-08-09T11:33:00.313Z,41.20
2017-08-09T11:35:27.675Z,42.80
2017-08-09T11:37:57.448Z,41.60
2017-08-09T11:40:24.047Z,41.50
2017-08-09T11:42:50.719Z,40.80
2017-08-09T11:45:17.544Z,40.00
2017-08-09T11:47:44.198Z,41.40
2017-08-09T11:50:10.989Z,41.60
2017-08-09T11:52:41.267Z,40.00
2017-08-09T11:55:07.899Z,41.40
2017-08-09T11:57:40.652Z,41.50
2017-08-09T12:00:11.060Z,42.00
2017-08-09T12:02:37.603Z,42.30
2017-08-09T12:05:08.345Z,40.60
2017-08-09T12:07:35.215Z,40.00
2017-08-09T12:10:01.876Z,41.00
2017-08-09T12:12:29.664Z,41.00
2017-08-09T12:14:56.267Z,41.20
2017-08-09T12:17:23.071Z,39.90
2017-08-09T12:22:21.431Z,37.40
2017-08-09T12:24:48.177Z,41.90
2017-08-09T12:27:14.759Z,40.30
2017-08-09T12:29:41.188Z,41.70
2017-08-09T12:32:07.892Z,40.30
2017-08-09T12:34:34.473Z,38.10
2017-08-09T12:37:01.139Z,39.90
2017-08-09T12:39:27.687Z,41.20
2017-08-09T12:41:54.200Z,39.90
2017-08-09T12:44:20.769Z,38.60
2017-08-09T12:46:47.313Z,40.10
2017-08-09T12:49:13.876Z,36.60
2017-08-09T12:51:40.438Z,37.00
2017-08-09T12:54:07.820Z,35.20
2017-08-09T12:56:34.572Z,35.20
2017-08-09T12:59:01.175Z,39.10
2017-08-09T13:01:27.727Z,38.70
2017-08-09T13:03:54.384Z,39.80
2017-08-09T13:06:21.040Z,39.80
2017-08-09T13:08:47.576Z,37.70
2017-08-09T13:11:14.171Z,38.30
2017-08-09T13:13:40.741Z,38.50
2017-08-09T13:16:07.289Z,37.80
2017-08-09T13:18:36.871Z,36.00
2017-08-09T13:21:03.433Z,37.20
2017-08-09T13:23:30.804Z,39.20
2017-08-09T13:25:58.312Z,38.10
2017-08-09T13:28:24.874Z,38.10
2017-08-09T13:30:52.214Z,38.40
2017-08-09T13:33:18.757Z,38.40
2017-08-09T13:35:45.284Z,37.90
2017-08-09T13:38:17.127Z,36.80
2017-08-09T13:40:43.600Z,36.90
2017-08-09T13:43:10.888Z,37.20
2017-08-09T13:45:37.711Z,37.10
2017-08-09T13:48:04.274Z,37.90
2017-08-09T13:50:30.852Z,38.00
2017-08-09T13:53:00.191Z,38.60
2017-08-09T13:55:27.478Z,39.10
2017-08-09T13:57:53.782Z,39.00
2017-08-09T14:00:27.302Z,37.10
2017-08-09T14:02:54.398Z,39.50
2017-08-09T14:05:20.987Z,39.50
2017-08-09T14:07:47.349Z,39.10
2017-08-09T14:10:13.656Z,34.90
2017-08-09T14:12:40.105Z,37.60
2017-08-09T14:15:06.428Z,38.10
2017-08-09T14:17:33.881Z,37.90
2017-08-09T14:20:00.253Z,37.90
2017-08-09T14:22:26.608Z,37.30
2017-08-09T14:24:52.948Z,39.30
2017-08-09T14:27:19.275Z,37.20
2017-08-09T14:29:45.709Z,38.00
2017-08-09T14:32:13.542Z,38.40
2017-08-09T14:34:40.589Z,36.40
2017-08-09T14:37:07.288Z,35.70
2017-08-09T14:39:33.916Z,36.30
2017-08-09T14:42:05.087Z,36.30
2017-08-09T14:44:32.507Z,34.60
2017-08-09T14:47:05.658Z,34.60
2017-08-09T14:49:32.005Z,34.00
2017-08-09T14:52:01.957Z,34.40
2017-08-09T14:54:28.317Z,34.80
2017-08-09T14:56:54.635Z,35.40
2017-08-09T14:59:21.018Z,37.20
2017-08-09T15:01:47.507Z,37.10
2017-08-09T15:04:13.838Z,37.20
2017-08-09T15:06:47.655Z,36.20
2017-08-09T15:09:13.995Z,35.40
2017-08-09T15:11:40.418Z,36.20
2017-08-09T15:14:06.849Z,35.60
2017-08-09T15:16:33.218Z,36.60
2017-08-09T15:18:59.599Z,37.60
2017-08-09T15:21:25.913Z,36.10
2017-08-09T15:23:52.268Z,35.00
2017-08-09T15:26:18.704Z,37.10
2017-08-09T15:28:45.056Z,36.40
2017-08-09T15:31:11.624Z,34.30
2017-08-09T15:33:38.948Z,35.80
2017-08-09T15:36:05.556Z,36.00
2017-08-09T15:38:31.920Z,35.40
2017-08-09T15:40:58.281Z,35.80
2017-08-09T15:43:24.681Z,35.50
2017-08-09T15:45:51.024Z,36.70
2017-08-09T15:48:17.415Z,35.70
2017-08-09T15:50:43.869Z,36.50
2017-08-09T15:53:10.220Z,36.80
2017-08-09T15:55:36.608Z,37.80
2017-08-09T15:58:03.178Z,35.60
2017-08-09T16:00:30.946Z,35.30
2017-08-09T16:02:57.266Z,35.40
2017-08-09T16:05:23.624Z,37.50
2017-08-09T16:07:51.432Z,37.10
2017-08-09T16:10:18.137Z,36.10
2017-08-09T16:12:44.675Z,35.70
2017-08-09T16:15:11.444Z,37.50
2017-08-09T16:17:38.015Z,36.60
2017-08-09T16:20:04.625Z,35.90
2017-08-09T16:22:31.215Z,35.80
2017-08-09T16:24:57.763Z,36.40
2017-08-09T16:27:24.660Z,35.70
2017-08-09T16:29:51.219Z,35.30
2017-08-09T16:32:17.809Z,36.80
2017-08-09T16:34:44.485Z,36.00
2017-08-09T16:37:12.535Z,37.40
2017-08-09T16:39:42.940Z,38.60
2017-08-09T16:42:09.268Z,36.70
2017-08-09T16:44:35.602Z,36.60
2017-08-09T16:47:02.008Z,37.40
2017-08-09T16:49:34.366Z,36.10
2017-08-09T16:52:00.968Z,36.30
2017-08-09T16:54:27.544Z,37.00
2017-08-09T16:56:54.877Z,38.50
2017-08-09T16:59:21.407Z,38.20
2017-08-09T17:01:48.653Z,37.20
2017-08-09T17:04:15.573Z,38.00
2017-08-09T17:06:42.090Z,36.30
2017-08-09T17:11:44.756Z,39.30
2017-08-09T17:14:11.080Z,36.30
2017-08-09T17:16:37.917Z,36.00
2017-08-09T17:19:05.143Z,38.60
2017-08-09T17:21:32.124Z,38.00
2017-08-09T17:23:58.922Z,40.40
2017-08-09T17:26:27.465Z,39.50
2017-08-09T17:28:54.328Z,39.60
2017-08-09T17:31:21.674Z,39.20
2017-08-09T17:33:48.033Z,37.60
2017-08-09T17:36:14.356Z,41.70
2017-08-09T17:38:40.877Z,40.20
2017-08-09T17:44:07.010Z,40.00
2017-08-09T17:46:33.323Z,41.00
2017-08-09T17:48:59.622Z,41.50
2017-08-09T17:51:26.018Z,41.50
2017-08-09T17:53:52.312Z,41.30
2017-08-09T17:56:18.716Z,41.30
2017-08-09T17:58:45.024Z,41.20
2017-08-09T18:01:11.437Z,42.90
2017-08-09T18:03:37.941Z,45.10
2017-08-09T18:06:04.503Z,44.90
2017-08-09T18:08:31.473Z,44.20
2017-08-09T18:10:58.040Z,43.30
2017-08-09T18:13:44.801Z,43.90
2017-08-09T18:16:22.241Z,43.60
2017-08-09T18:18:48.857Z,44.30
2017-08-09T18:21:17.160Z,44.20
2017-08-09T18:23:45.261Z,44.00
2017-08-09T18:26:11.960Z,45.50
2017-08-09T18:28:38.506Z,44.60
2017-08-09T18:31:05.925Z,45.60
2017-08-09T18:33:32.289Z,45.50
2017-08-09T18:35:58.828Z,44.20
2017-08-09T18:38:25.196Z,41.70
2017-08-09T18:40:51.772Z,43.20
2017-08-09T18:43:18.225Z,44.10
2017-08-09T18:45:44.841Z,44.90
2017-08-09T18:48:11.669Z,46.40
2017-08-09T18:50:38.009Z,47.10
2017-08-09T18:53:04.332Z,46.70
2017-08-09T18:55:31.303Z,46.40
2017-08-09T18:57:57.624Z,47.30
2017-08-09T19:00:23.998Z,47.90
2017-08-09T19:02:50.312Z,47.30
2017-08-09T19:05:16.877Z,48.10
2017-08-09T19:07:43.280Z,46.70
2017-08-09T19:10:09.760Z,48.20
2017-08-09T19:12:36.344Z,47.20
2017-08-09T19:15:02.963Z,48.40
2017-08-09T19:17:29.478Z,48.40
2017-08-09T19:19:56.010Z,47.50
2017-08-09T19:22:22.611Z,49.70
2017-08-09T19:24:49.183Z,49.20
2017-08-09T19:27:15.830Z,51.00
2017-08-09T19:29:42.390Z,51.00
2017-08-09T19:32:09.340Z,51.60
2017-08-09T19:34:35.896Z,51.50
2017-08-09T19:37:02.409Z,52.30
2017-08-09T19:39:28.972Z,51.00
2017-08-09T19:41:55.585Z,52.10
2017-08-09T19:44:22.889Z,51.40
2017-08-09T19:46:49.712Z,51.40
2017-08-09T19:49:16.460Z,50.80
2017-08-09T19:51:42.980Z,52.60
2017-08-09T19:54:10.430Z,54.00
2017-08-09T19:56:36.843Z,54.00
2017-08-09T19:59:03.160Z,53.10
2017-08-09T20:01:29.549Z,52.90
2017-08-09T20:03:56.520Z,53.50
2017-08-09T20:06:22.941Z,52.20
2017-08-09T20:08:49.357Z,53.30
2017-08-09T20:11:15.732Z,54.20
2017-08-09T20:13:42.065Z,54.60
2017-08-09T20:16:08.392Z,54.00
2017-08-09T20:18:34.847Z,55.10
2017-08-09T20:21:01.167Z,54.80
2017-08-09T20:23:27.471Z,55.00
2017-08-09T20:25:54.060Z,55.70
2017-08-09T20:28:20.557Z,56.40
2017-08-09T20:30:47.065Z,55.60
2017-08-09T20:33:20.655Z,56.30
2017-08-09T20:35:47.033Z,56.20
2017-08-09T20:38:13.421Z,56.70
2017-08-09T20:40:39.744Z,55.70
2017-08-09T20:43:06.104Z,54.80
2017-08-09T20:45:32.436Z,54.80
2017-08-09T20:47:58.850Z,56.60
2017-08-09T20:50:30.248Z,57.30
2017-08-09T20:52:56.624Z,57.20
2017-08-09T20:55:23.691Z,58.60
2017-08-09T20:57:50.005Z,58.00
2017-08-09T21:00:16.398Z,57.50
2017-08-09T21:02:42.739Z,58.10
2017-08-09T21:05:09.128Z,58.30
2017-08-09T21:07:35.484Z,57.10
2017-08-09T21:10:01.789Z,57.00
2017-08-09T21:12:29.021Z,59.30
2017-08-09T21:14:55.818Z,58.80
2017-08-09T21:17:22.167Z,58.40
2017-08-09T21:19:48.476Z,58.40
2017-08-09T21:22:15.245Z,58.50
2017-08-09T21:24:41.794Z,59.10
2017-08-09T21:27:08.174Z,59.50
2017-08-09T21:29:34.548Z,58.50
2017-08-09T21:32:01.661Z,60.20
2017-08-09T21:34:28.112Z,60.20
2017-08-09T21:36:54.504Z,59.10
2017-08-09T21:39:20.887Z,59.40
2017-08-09T21:41:47.223Z,59.30
2017-08-09T21:44:13.701Z,58.60
2017-08-09T21:46:41.523Z,59.80
2017-08-09T21:49:07.858Z,60.00
2017-08-09T21:51:34.742Z,59.30
2017-08-09T21:54:01.120Z,60.00
2017-08-09T21:56:27.486Z,60.50
2017-08-09T21:58:53.931Z,60.00
2017-08-09T22:01:23.690Z,59.30
2017-08-09T22:03:50.027Z,58.70
2017-08-09T22:06:17.963Z,59.40
2017-08-09T22:08:44.480Z,60.10
2017-08-09T22:11:11.596Z,60.20
2017-08-09T22:13:37.908Z,60.20
2017-08-09T22:16:04.221Z,60.10
2017-08-09T22:18:30.531Z,60.10
2017-08-09T22:20:56.852Z,60.00
2017-08-09T22:23:23.186Z,58.30
2017-08-09T22:25:49.506Z,58.20
2017-08-09T22:28:15.893Z,59.50
2017-08-09T22:30:49.264Z,59.90
2017-08-09T22:33:15.581Z,61.00
2017-08-09T22:35:41.910Z,59.90
2017-08-09T22:38:08.258Z,60.00
2017-08-09T22:40:34.571Z,60.00
2017-08-09T22:43:01.619Z,60.00
2017-08-09T22:45:27.944Z,59.90
2017-08-09T22:47:54.282Z,60.50
2017-08-09T22:50:20.706Z,59.90
2017-08-09T22:52:47.077Z,60.40
2017-08-09T22:55:13.414Z,60.00
2017-08-09T22:57:39.712Z,60.50
2017-08-09T23:00:06.037Z,60.80
2017-08-09T23:02:32.361Z,61.90
2017-08-09T23:04:58.688Z,61.00
2017-08-09T23:07:24.985Z,60.40
2017-08-09T23:09:51.323Z,60.20
2017-08-09T23:12:17.669Z,60.40
2017-08-09T23:14:44.737Z,61.40
2017-08-09T23:17:11.056Z,61.40
2017-08-09T23:19:37.406Z,60.60
2017-08-09T23:22:03.712Z,61.10
2017-08-09T23:24:30.066Z,61.70
2017-08-09T23:26:56.425Z,62.10
2017-08-09T23:29:22.763Z,61.20
2017-08-09T23:31:49.144Z,61.40
2017-08-09T23:34:16.207Z,61.50
2017-08-09T23:36:42.613Z,61.50
2017-08-09T23:39:08.977Z,61.80
2017-08-09T23:41:35.331Z,61.80
2017-08-09T23:44:01.745Z,62.20
2017-08-09T23:46:28.069Z,60.80
2017-08-09T23:48:54.388Z,61.10
2017-08-09T23:51:20.805Z,61.40
2017-08-09T23:53:47.847Z,60.10
2017-08-09T23:56:14.960Z,59.90
2017-08-09T23:58:41.371Z,59.60
